sensor_id;sensor_type;location;lat;lon;timestamp;P1;durP1;ratioP1;P2;durP2;ratioP2
27225;SDS011;14732;51.074;3.788;2024-02-15T00:02:14;12.00;;;3.22;;
27225;SDS011;14732;51.074;3.788;2024-02-15T00:04:40;11.07;;;3.50;;
27225;SDS011;14732;51.074;3.788;2024-02-15T00:07:06;8.65;;;3.05;;
27225;SDS011;14732;51.074;3.788;2024-02-15T00:09:31;11.65;;;2.90;;
27225;SDS011;14732;51.074;3.788;2024-02-15T00:11:57;14.48;;;3.35;;
27225;SDS011;14732;51.074;3.788;2024-02-15T00:14:24;13.45;;;3.30;;
27225;SDS011;14732;51.074;3.788;2024-02-15T00:16:50;9.77;;;2.92;;
27225;SDS011;14732;51.074;3.788;2024-02-15T00:19:16;16.25;;;3.10;;
27225;SDS011;14732;51.074;3.788;2024-02-15T00:21:45;11.90;;;3.10;;
27225;SDS011;14732;51.074;3.788;2024-02-15T00:24:11;13.40;;;3.22;;
27225;SDS011;14732;51.074;3.788;2024-02-15T00:26:37;15.25;;;3.35;;
27225;SDS011;14732;51.074;3.788;2024-02-15T00:29:03;15.77;;;3.10;;
27225;SDS011;14732;51.074;3.788;2024-02-15T00:31:29;11.80;;;3.08;;
27225;SDS011;14732;51.074;3.788;2024-02-15T00:33:54;11.45;;;2.92;;
27225;SDS011;14732;51.074;3.788;2024-02-15T00:36:20;16.95;;;3.20;;
27225;SDS011;14732;51.074;3.788;2024-02-15T00:38:46;7.63;;;2.75;;
27225;SDS011;14732;51.074;3.788;2024-02-15T00:41:11;13.30;;;2.58;;
27225;SDS011;14732;51.074;3.788;2024-02-15T00:43:37;11.20;;;2.63;;
27225;SDS011;14732;51.074;3.788;2024-02-15T00:46:03;9.35;;;3.03;;
27225;SDS011;14732;51.074;3.788;2024-02-15T00:48:29;8.75;;;2.53;;
27225;SDS011;14732;51.074;3.788;2024-02-15T00:50:55;7.57;;;2.83;;
27225;SDS011;14732;51.074;3.788;2024-02-15T00:53:21;12.55;;;2.75;;
27225;SDS011;14732;51.074;3.788;2024-02-15T00:55:47;11.27;;;3.08;;
27225;SDS011;14732;51.074;3.788;2024-02-15T00:58:12;11.25;;;2.90;;
27225;SDS011;14732;51.074;3.788;2024-02-15T01:00:38;8.80;;;2.85;;
27225;SDS011;14732;51.074;3.788;2024-02-15T01:03:03;12.30;;;2.90;;
27225;SDS011;14732;51.074;3.788;2024-02-15T01:05:29;7.78;;;2.72;;
27225;SDS011;14732;51.074;3.788;2024-02-15T01:07:55;10.65;;;2.58;;
27225;SDS011;14732;51.074;3.788;2024-02-15T01:10:22;14.35;;;3.20;;
27225;SDS011;14732;51.074;3.788;2024-02-15T01:12:49;10.98;;;3.15;;
27225;SDS011;14732;51.074;3.788;2024-02-15T01:15:15;10.98;;;3.53;;
27225;SDS011;14732;51.074;3.788;2024-02-15T01:20:10;13.18;;;3.15;;
27225;SDS011;14732;51.074;3.788;2024-02-15T01:22:36;9.57;;;2.97;;
27225;SDS011;14732;51.074;3.788;2024-02-15T01:25:02;12.88;;;3.22;;
27225;SDS011;14732;51.074;3.788;2024-02-15T01:27:28;9.82;;;2.53;;
27225;SDS011;14732;51.074;3.788;2024-02-15T01:29:55;16.73;;;3.28;;
27225;SDS011;14732;51.074;3.788;2024-02-15T01:32:23;11.25;;;3.20;;
27225;SDS011;14732;51.074;3.788;2024-02-15T01:34:50;16.50;;;3.00;;
27225;SDS011;14732;51.074;3.788;2024-02-15T01:37:19;7.72;;;2.65;;
27225;SDS011;14732;51.074;3.788;2024-02-15T01:39:45;11.95;;;3.28;;
27225;SDS011;14732;51.074;3.788;2024-02-15T01:42:11;14.38;;;3.17;;
27225;SDS011;14732;51.074;3.788;2024-02-15T01:44:39;12.07;;;3.00;;
27225;SDS011;14732;51.074;3.788;2024-02-15T01:47:09;8.50;;;3.10;;
27225;SDS011;14732;51.074;3.788;2024-02-15T01:49:36;11.88;;;3.33;;
27225;SDS011;14732;51.074;3.788;2024-02-15T01:52:02;13.23;;;3.28;;
27225;SDS011;14732;51.074;3.788;2024-02-15T01:54:30;11.43;;;3.50;;
27225;SDS011;14732;51.074;3.788;2024-02-15T01:56:57;13.93;;;3.45;;
27225;SDS011;14732;51.074;3.788;2024-02-15T01:59:23;14.90;;;3.97;;
27225;SDS011;14732;51.074;3.788;2024-02-15T02:01:50;11.70;;;3.40;;
27225;SDS011;14732;51.074;3.788;2024-02-15T02:04:16;12.55;;;3.70;;
27225;SDS011;14732;51.074;3.788;2024-02-15T02:06:41;14.02;;;3.53;;
27225;SDS011;14732;51.074;3.788;2024-02-15T02:09:10;12.82;;;3.78;;
27225;SDS011;14732;51.074;3.788;2024-02-15T02:11:40;11.38;;;3.80;;
27225;SDS011;14732;51.074;3.788;2024-02-15T02:14:15;8.98;;;4.00;;
27225;SDS011;14732;51.074;3.788;2024-02-15T02:16:41;11.40;;;3.63;;
27225;SDS011;14732;51.074;3.788;2024-02-15T02:19:07;17.55;;;4.13;;
27225;SDS011;14732;51.074;3.788;2024-02-15T02:21:34;9.40;;;3.42;;
27225;SDS011;14732;51.074;3.788;2024-02-15T02:24:02;9.82;;;3.70;;
27225;SDS011;14732;51.074;3.788;2024-02-15T02:26:33;15.38;;;3.95;;
27225;SDS011;14732;51.074;3.788;2024-02-15T02:28:59;11.10;;;3.47;;
27225;SDS011;14732;51.074;3.788;2024-02-15T02:31:29;10.25;;;4.18;;
27225;SDS011;14732;51.074;3.788;2024-02-15T02:36:25;11.05;;;3.60;;
27225;SDS011;14732;51.074;3.788;2024-02-15T02:38:52;13.75;;;3.95;;
27225;SDS011;14732;51.074;3.788;2024-02-15T02:41:18;9.73;;;3.22;;
27225;SDS011;14732;51.074;3.788;2024-02-15T02:43:44;11.93;;;3.22;;
27225;SDS011;14732;51.074;3.788;2024-02-15T02:46:11;16.77;;;3.72;;
27225;SDS011;14732;51.074;3.788;2024-02-15T02:48:37;12.88;;;3.30;;
27225;SDS011;14732;51.074;3.788;2024-02-15T02:51:04;14.15;;;3.72;;
27225;SDS011;14732;51.074;3.788;2024-02-15T02:53:31;10.00;;;3.20;;
27225;SDS011;14732;51.074;3.788;2024-02-15T02:55:56;11.50;;;3.83;;
27225;SDS011;14732;51.074;3.788;2024-02-15T02:58:22;10.48;;;3.35;;
27225;SDS011;14732;51.074;3.788;2024-02-15T03:00:48;11.05;;;3.22;;
27225;SDS011;14732;51.074;3.788;2024-02-15T03:03:15;14.07;;;3.38;;
27225;SDS011;14732;51.074;3.788;2024-02-15T03:05:41;11.43;;;3.83;;
27225;SDS011;14732;51.074;3.788;2024-02-15T03:08:10;12.75;;;3.42;;
27225;SDS011;14732;51.074;3.788;2024-02-15T03:10:38;7.57;;;3.55;;
27225;SDS011;14732;51.074;3.788;2024-02-15T03:13:04;10.68;;;3.42;;
27225;SDS011;14732;51.074;3.788;2024-02-15T03:15:31;16.63;;;4.00;;
27225;SDS011;14732;51.074;3.788;2024-02-15T03:17:58;9.18;;;4.00;;
27225;SDS011;14732;51.074;3.788;2024-02-15T03:20:23;9.82;;;3.88;;
27225;SDS011;14732;51.074;3.788;2024-02-15T03:22:53;11.77;;;4.60;;
27225;SDS011;14732;51.074;3.788;2024-02-15T03:25:19;9.43;;;4.13;;
27225;SDS011;14732;51.074;3.788;2024-02-15T03:27:48;13.88;;;3.95;;
27225;SDS011;14732;51.074;3.788;2024-02-15T03:30:16;15.02;;;4.55;;
27225;SDS011;14732;51.074;3.788;2024-02-15T03:32:42;14.70;;;4.43;;
27225;SDS011;14732;51.074;3.788;2024-02-15T03:35:08;8.27;;;4.47;;
27225;SDS011;14732;51.074;3.788;2024-02-15T03:37:34;12.40;;;4.40;;
27225;SDS011;14732;51.074;3.788;2024-02-15T03:40:04;8.45;;;3.83;;
27225;SDS011;14732;51.074;3.788;2024-02-15T03:42:31;10.60;;;3.90;;
27225;SDS011;14732;51.074;3.788;2024-02-15T03:44:56;13.52;;;4.32;;
27225;SDS011;14732;51.074;3.788;2024-02-15T03:47:22;12.55;;;4.85;;
27225;SDS011;14732;51.074;3.788;2024-02-15T03:49:48;11.93;;;4.25;;
27225;SDS011;14732;51.074;3.788;2024-02-15T03:52:14;14.20;;;4.20;;
27225;SDS011;14732;51.074;3.788;2024-02-15T03:54:40;8.63;;;3.92;;
27225;SDS011;14732;51.074;3.788;2024-02-15T03:57:08;13.25;;;4.88;;
27225;SDS011;14732;51.074;3.788;2024-02-15T03:59:33;11.48;;;3.97;;
27225;SDS011;14732;51.074;3.788;2024-02-15T04:02:00;14.80;;;4.47;;
27225;SDS011;14732;51.074;3.788;2024-02-15T04:04:28;11.27;;;3.90;;
27225;SDS011;14732;51.074;3.788;2024-02-15T04:06:55;12.35;;;4.15;;
27225;SDS011;14732;51.074;3.788;2024-02-15T04:09:21;18.40;;;4.32;;
27225;SDS011;14732;51.074;3.788;2024-02-15T04:11:47;14.63;;;4.05;;
27225;SDS011;14732;51.074;3.788;2024-02-15T04:14:17;8.23;;;3.85;;
27225;SDS011;14732;51.074;3.788;2024-02-15T04:16:43;9.25;;;3.97;;
27225;SDS011;14732;51.074;3.788;2024-02-15T04:19:12;12.10;;;3.92;;
27225;SDS011;14732;51.074;3.788;2024-02-15T04:21:38;11.48;;;4.28;;
27225;SDS011;14732;51.074;3.788;2024-02-15T04:24:05;13.48;;;4.30;;
27225;SDS011;14732;51.074;3.788;2024-02-15T04:26:31;11.10;;;4.32;;
27225;SDS011;14732;51.074;3.788;2024-02-15T04:28:57;10.07;;;3.55;;
27225;SDS011;14732;51.074;3.788;2024-02-15T04:31:23;14.25;;;4.60;;
27225;SDS011;14732;51.074;3.788;2024-02-15T04:33:54;13.18;;;3.90;;
27225;SDS011;14732;51.074;3.788;2024-02-15T04:36:23;10.43;;;3.88;;
27225;SDS011;14732;51.074;3.788;2024-02-15T04:38:50;13.98;;;4.38;;
27225;SDS011;14732;51.074;3.788;2024-02-15T04:41:16;11.18;;;4.60;;
27225;SDS011;14732;51.074;3.788;2024-02-15T04:43:48;13.93;;;4.35;;
27225;SDS011;14732;51.074;3.788;2024-02-15T04:46:14;14.30;;;4.45;;
27225;SDS011;14732;51.074;3.788;2024-02-15T04:48:40;12.00;;;3.90;;
27225;SDS011;14732;51.074;3.788;2024-02-15T04:51:09;11.13;;;4.27;;
27225;SDS011;14732;51.074;3.788;2024-02-15T04:53:38;10.35;;;4.00;;
27225;SDS011;14732;51.074;3.788;2024-02-15T04:56:07;15.40;;;3.88;;
27225;SDS011;14732;51.074;3.788;2024-02-15T04:58:38;12.18;;;3.80;;
27225;SDS011;14732;51.074;3.788;2024-02-15T05:01:12;10.98;;;3.80;;
27225;SDS011;14732;51.074;3.788;2024-02-15T05:03:41;8.65;;;3.83;;
27225;SDS011;14732;51.074;3.788;2024-02-15T05:06:10;10.27;;;4.30;;
27225;SDS011;14732;51.074;3.788;2024-02-15T05:08:37;12.32;;;4.28;;
27225;SDS011;14732;51.074;3.788;2024-02-15T05:11:07;10.00;;;3.70;;
27225;SDS011;14732;51.074;3.788;2024-02-15T05:13:44;8.57;;;3.55;;
27225;SDS011;14732;51.074;3.788;2024-02-15T05:16:11;11.25;;;3.30;;
27225;SDS011;14732;51.074;3.788;2024-02-15T05:18:39;8.25;;;3.50;;
27225;SDS011;14732;51.074;3.788;2024-02-15T05:21:05;15.93;;;3.97;;
27225;SDS011;14732;51.074;3.788;2024-02-15T05:23:37;9.88;;;3.40;;
27225;SDS011;14732;51.074;3.788;2024-02-15T05:26:04;13.80;;;3.95;;
27225;SDS011;14732;51.074;3.788;2024-02-15T05:28:31;8.35;;;3.00;;
27225;SDS011;14732;51.074;3.788;2024-02-15T05:33:42;11.05;;;3.65;;
27225;SDS011;14732;51.074;3.788;2024-02-15T05:36:14;14.35;;;3.00;;
27225;SDS011;14732;51.074;3.788;2024-02-15T05:38:42;8.23;;;3.08;;
27225;SDS011;14732;51.074;3.788;2024-02-15T05:41:11;11.45;;;3.40;;
27225;SDS011;14732;51.074;3.788;2024-02-15T05:43:37;10.82;;;3.42;;
27225;SDS011;14732;51.074;3.788;2024-02-15T05:46:09;10.85;;;3.15;;
27225;SDS011;14732;51.074;3.788;2024-02-15T05:48:36;14.30;;;3.30;;
27225;SDS011;14732;51.074;3.788;2024-02-15T05:51:08;9.13;;;2.83;;
27225;SDS011;14732;51.074;3.788;2024-02-15T05:53:34;8.50;;;3.15;;
27225;SDS011;14732;51.074;3.788;2024-02-15T05:56:01;7.28;;;2.95;;
27225;SDS011;14732;51.074;3.788;2024-02-15T05:58:29;10.80;;;2.70;;
27225;SDS011;14732;51.074;3.788;2024-02-15T06:00:55;7.65;;;2.72;;
27225;SDS011;14732;51.074;3.788;2024-02-15T06:03:26;9.18;;;2.90;;
27225;SDS011;14732;51.074;3.788;2024-02-15T06:05:52;6.05;;;2.58;;
27225;SDS011;14732;51.074;3.788;2024-02-15T06:08:23;9.43;;;2.88;;
27225;SDS011;14732;51.074;3.788;2024-02-15T06:10:49;6.70;;;2.75;;
27225;SDS011;14732;51.074;3.788;2024-02-15T06:13:15;6.63;;;2.63;;
27225;SDS011;14732;51.074;3.788;2024-02-15T06:15:41;6.60;;;2.58;;
27225;SDS011;14732;51.074;3.788;2024-02-15T06:18:06;9.15;;;2.55;;
27225;SDS011;14732;51.074;3.788;2024-02-15T06:20:35;7.28;;;2.30;;
27225;SDS011;14732;51.074;3.788;2024-02-15T06:23:01;7.80;;;2.25;;
27225;SDS011;14732;51.074;3.788;2024-02-15T06:25:30;6.93;;;2.50;;
27225;SDS011;14732;51.074;3.788;2024-02-15T06:27:57;5.80;;;1.98;;
27225;SDS011;14732;51.074;3.788;2024-02-15T06:30:27;8.55;;;2.53;;
27225;SDS011;14732;51.074;3.788;2024-02-15T06:33:14;8.25;;;2.25;;
27225;SDS011;14732;51.074;3.788;2024-02-15T06:35:58;4.70;;;2.03;;
27225;SDS011;14732;51.074;3.788;2024-02-15T06:38:42;7.10;;;2.05;;
27225;SDS011;14732;51.074;3.788;2024-02-15T06:41:26;6.60;;;2.00;;
27225;SDS011;14732;51.074;3.788;2024-02-15T06:43:53;6.63;;;1.95;;
27225;SDS011;14732;51.074;3.788;2024-02-15T06:46:18;5.75;;;1.63;;
27225;SDS011;14732;51.074;3.788;2024-02-15T06:48:44;7.25;;;2.10;;
27225;SDS011;14732;51.074;3.788;2024-02-15T06:51:13;6.03;;;1.60;;
27225;SDS011;14732;51.074;3.788;2024-02-15T06:53:40;5.80;;;1.88;;
27225;SDS011;14732;51.074;3.788;2024-02-15T06:56:09;7.53;;;2.15;;
27225;SDS011;14732;51.074;3.788;2024-02-15T06:58:35;6.10;;;1.85;;
27225;SDS011;14732;51.074;3.788;2024-02-15T07:01:01;5.47;;;1.88;;
27225;SDS011;14732;51.074;3.788;2024-02-15T07:03:30;4.32;;;1.90;;
27225;SDS011;14732;51.074;3.788;2024-02-15T07:08:22;5.18;;;2.03;;
27225;SDS011;14732;51.074;3.788;2024-02-15T07:10:49;7.80;;;4.40;;
27225;SDS011;14732;51.074;3.788;2024-02-15T07:13:16;11.85;;;2.38;;
27225;SDS011;14732;51.074;3.788;2024-02-15T07:15:42;6.10;;;2.13;;
27225;SDS011;14732;51.074;3.788;2024-02-15T07:18:09;4.30;;;1.75;;
27225;SDS011;14732;51.074;3.788;2024-02-15T07:20:37;6.85;;;2.00;;
27225;SDS011;14732;51.074;3.788;2024-02-15T07:23:02;5.22;;;1.92;;
27225;SDS011;14732;51.074;3.788;2024-02-15T07:25:30;6.82;;;1.77;;
27225;SDS011;14732;51.074;3.788;2024-02-15T07:27:56;6.32;;;2.10;;
27225;SDS011;14732;51.074;3.788;2024-02-15T07:30:22;7.07;;;2.08;;
27225;SDS011;14732;51.074;3.788;2024-02-15T07:32:48;5.15;;;2.10;;
27225;SDS011;14732;51.074;3.788;2024-02-15T07:35:14;6.53;;;2.50;;
27225;SDS011;14732;51.074;3.788;2024-02-15T07:37:50;6.55;;;2.10;;
27225;SDS011;14732;51.074;3.788;2024-02-15T07:40:18;5.97;;;2.72;;
27225;SDS011;14732;51.074;3.788;2024-02-15T07:42:43;5.22;;;2.78;;
27225;SDS011;14732;51.074;3.788;2024-02-15T07:45:09;10.27;;;2.67;;
27225;SDS011;14732;51.074;3.788;2024-02-15T07:47:36;9.93;;;2.83;;
27225;SDS011;14732;51.074;3.788;2024-02-15T07:50:02;7.80;;;2.40;;
27225;SDS011;14732;51.074;3.788;2024-02-15T07:52:28;9.13;;;2.58;;
27225;SDS011;14732;51.074;3.788;2024-02-15T07:54:54;8.52;;;2.38;;
27225;SDS011;14732;51.074;3.788;2024-02-15T07:57:21;8.82;;;2.45;;
27225;SDS011;14732;51.074;3.788;2024-02-15T07:59:46;8.38;;;2.85;;
27225;SDS011;14732;51.074;3.788;2024-02-15T08:02:14;10.32;;;2.85;;
27225;SDS011;14732;51.074;3.788;2024-02-15T08:04:43;9.20;;;2.75;;
27225;SDS011;14732;51.074;3.788;2024-02-15T08:07:09;6.45;;;2.88;;
27225;SDS011;14732;51.074;3.788;2024-02-15T08:09:36;7.47;;;2.88;;
27225;SDS011;14732;51.074;3.788;2024-02-15T08:12:02;7.43;;;2.53;;
27225;SDS011;14732;51.074;3.788;2024-02-15T08:14:28;7.47;;;2.53;;
27225;SDS011;14732;51.074;3.788;2024-02-15T08:16:54;8.88;;;2.97;;
27225;SDS011;14732;51.074;3.788;2024-02-15T08:19:20;7.38;;;2.60;;
27225;SDS011;14732;51.074;3.788;2024-02-15T08:21:48;6.45;;;2.88;;
27225;SDS011;14732;51.074;3.788;2024-02-15T08:24:16;5.40;;;2.70;;
27225;SDS011;14732;51.074;3.788;2024-02-15T08:26:42;7.45;;;2.95;;
27225;SDS011;14732;51.074;3.788;2024-02-15T08:29:07;9.80;;;3.35;;
27225;SDS011;14732;51.074;3.788;2024-02-15T08:31:38;7.72;;;3.30;;
27225;SDS011;14732;51.074;3.788;2024-02-15T08:34:04;10.15;;;3.30;;
27225;SDS011;14732;51.074;3.788;2024-02-15T08:36:35;10.43;;;3.42;;
27225;SDS011;14732;51.074;3.788;2024-02-15T08:39:01;8.32;;;3.13;;
27225;SDS011;14732;51.074;3.788;2024-02-15T08:41:29;8.10;;;2.92;;
27225;SDS011;14732;51.074;3.788;2024-02-15T08:43:54;8.77;;;2.88;;
27225;SDS011;14732;51.074;3.788;2024-02-15T08:46:23;10.38;;;3.20;;
27225;SDS011;14732;51.074;3.788;2024-02-15T08:48:50;6.32;;;2.72;;
27225;SDS011;14732;51.074;3.788;2024-02-15T08:51:16;13.70;;;2.58;;
27225;SDS011;14732;51.074;3.788;2024-02-15T08:53:43;4.63;;;2.80;;
27225;SDS011;14732;51.074;3.788;2024-02-15T08:56:08;8.75;;;3.33;;
27225;SDS011;14732;51.074;3.788;2024-02-15T08:58:35;5.53;;;2.83;;
27225;SDS011;14732;51.074;3.788;2024-02-15T09:01:01;7.00;;;2.72;;
27225;SDS011;14732;51.074;3.788;2024-02-15T09:03:28;5.47;;;2.55;;
27225;SDS011;14732;51.074;3.788;2024-02-15T09:05:53;8.18;;;3.08;;
27225;SDS011;14732;51.074;3.788;2024-02-15T09:08:19;7.85;;;2.53;;
27225;SDS011;14732;51.074;3.788;2024-02-15T09:10:54;6.78;;;2.35;;
27225;SDS011;14732;51.074;3.788;2024-02-15T09:13:20;5.13;;;2.63;;
27225;SDS011;14732;51.074;3.788;2024-02-15T09:15:47;6.82;;;2.45;;
27225;SDS011;14732;51.074;3.788;2024-02-15T09:18:13;6.32;;;2.50;;
27225;SDS011;14732;51.074;3.788;2024-02-15T09:20:38;7.45;;;2.55;;
27225;SDS011;14732;51.074;3.788;2024-02-15T09:23:09;6.32;;;2.20;;
27225;SDS011;14732;51.074;3.788;2024-02-15T09:25:40;8.93;;;2.28;;
27225;SDS011;14732;51.074;3.788;2024-02-15T09:28:09;10.60;;;2.75;;
27225;SDS011;14732;51.074;3.788;2024-02-15T09:30:35;4.78;;;2.22;;
27225;SDS011;14732;51.074;3.788;2024-02-15T09:33:01;5.70;;;2.08;;
27225;SDS011;14732;51.074;3.788;2024-02-15T09:35:30;9.77;;;2.03;;
27225;SDS011;14732;51.074;3.788;2024-02-15T09:37:56;5.55;;;1.95;;
27225;SDS011;14732;51.074;3.788;2024-02-15T09:40:22;3.97;;;1.90;;
27225;SDS011;14732;51.074;3.788;2024-02-15T09:42:54;5.28;;;1.63;;
27225;SDS011;14732;51.074;3.788;2024-02-15T09:45:20;4.32;;;1.90;;
27225;SDS011;14732;51.074;3.788;2024-02-15T09:47:46;8.95;;;2.05;;
27225;SDS011;14732;51.074;3.788;2024-02-15T09:50:15;6.18;;;1.70;;
27225;SDS011;14732;51.074;3.788;2024-02-15T09:52:48;9.95;;;2.08;;
27225;SDS011;14732;51.074;3.788;2024-02-15T09:55:18;5.03;;;1.65;;
27225;SDS011;14732;51.074;3.788;2024-02-15T09:57:44;4.35;;;1.60;;
27225;SDS011;14732;51.074;3.788;2024-02-15T10:00:11;4.80;;;1.58;;
27225;SDS011;14732;51.074;3.788;2024-02-15T10:02:42;3.70;;;1.48;;
27225;SDS011;14732;51.074;3.788;2024-02-15T10:05:09;3.60;;;1.52;;
27225;SDS011;14732;51.074;3.788;2024-02-15T10:07:42;5.32;;;1.58;;
27225;SDS011;14732;51.074;3.788;2024-02-15T10:10:18;5.93;;;1.60;;
27225;SDS011;14732;51.074;3.788;2024-02-15T10:12:50;4.72;;;1.77;;
27225;SDS011;14732;51.074;3.788;2024-02-15T10:15:35;2.58;;;1.50;;
27225;SDS011;14732;51.074;3.788;2024-02-15T10:18:04;6.07;;;1.50;;
27225;SDS011;14732;51.074;3.788;2024-02-15T10:20:33;5.00;;;1.48;;
27225;SDS011;14732;51.074;3.788;2024-02-15T10:25:29;5.65;;;1.65;;
27225;SDS011;14732;51.074;3.788;2024-02-15T10:28:04;3.95;;;1.70;;
27225;SDS011;14732;51.074;3.788;2024-02-15T10:30:34;5.40;;;1.50;;
27225;SDS011;14732;51.074;3.788;2024-02-15T10:33:10;5.55;;;1.77;;
27225;SDS011;14732;51.074;3.788;2024-02-15T10:36:04;3.53;;;1.52;;
27225;SDS011;14732;51.074;3.788;2024-02-15T10:38:33;4.97;;;1.60;;
27225;SDS011;14732;51.074;3.788;2024-02-15T10:41:04;6.38;;;1.85;;
27225;SDS011;14732;51.074;3.788;2024-02-15T10:43:37;6.82;;;2.03;;
27225;SDS011;14732;51.074;3.788;2024-02-15T10:46:05;4.25;;;1.67;;
27225;SDS011;14732;51.074;3.788;2024-02-15T10:48:34;4.13;;;1.75;;
27225;SDS011;14732;51.074;3.788;2024-02-15T10:51:01;3.70;;;1.70;;
27225;SDS011;14732;51.074;3.788;2024-02-15T10:53:32;6.53;;;1.63;;
27225;SDS011;14732;51.074;3.788;2024-02-15T10:56:17;4.85;;;2.03;;
27225;SDS011;14732;51.074;3.788;2024-02-15T10:58:54;4.57;;;1.55;;
27225;SDS011;14732;51.074;3.788;2024-02-15T11:03:59;3.17;;;1.40;;
27225;SDS011;14732;51.074;3.788;2024-02-15T11:06:30;5.35;;;1.70;;
27225;SDS011;14732;51.074;3.788;2024-02-15T11:09:00;2.55;;;1.30;;
27225;SDS011;14732;51.074;3.788;2024-02-15T11:11:28;5.10;;;1.27;;
27225;SDS011;14732;51.074;3.788;2024-02-15T11:16:54;4.38;;;1.60;;
27225;SDS011;14732;51.074;3.788;2024-02-15T11:22:11;6.43;;;1.30;;
27225;SDS011;14732;51.074;3.788;2024-02-15T11:24:49;3.78;;;1.40;;
27225;SDS011;14732;51.074;3.788;2024-02-15T11:27:29;4.15;;;1.38;;
27225;SDS011;14732;51.074;3.788;2024-02-15T11:30:00;4.28;;;1.50;;
27225;SDS011;14732;51.074;3.788;2024-02-15T11:32:34;3.28;;;1.35;;
27225;SDS011;14732;51.074;3.788;2024-02-15T11:35:20;4.20;;;1.50;;
27225;SDS011;14732;51.074;3.788;2024-02-15T11:40:16;5.32;;;1.42;;
27225;SDS011;14732;51.074;3.788;2024-02-15T11:42:43;4.63;;;1.60;;
27225;SDS011;14732;51.074;3.788;2024-02-15T11:45:09;6.55;;;1.70;;
27225;SDS011;14732;51.074;3.788;2024-02-15T11:47:40;7.47;;;1.67;;
27225;SDS011;14732;51.074;3.788;2024-02-15T11:50:13;3.65;;;1.40;;
27225;SDS011;14732;51.074;3.788;2024-02-15T11:52:43;2.23;;;1.40;;
27225;SDS011;14732;51.074;3.788;2024-02-15T11:55:11;3.63;;;1.15;;
27225;SDS011;14732;51.074;3.788;2024-02-15T11:57:40;13.73;;;1.70;;
27225;SDS011;14732;51.074;3.788;2024-02-15T12:00:34;6.20;;;1.45;;
27225;SDS011;14732;51.074;3.788;2024-02-15T12:03:19;4.53;;;1.40;;
27225;SDS011;14732;51.074;3.788;2024-02-15T12:06:04;4.32;;;1.70;;
27225;SDS011;14732;51.074;3.788;2024-02-15T12:08:49;5.05;;;1.30;;
27225;SDS011;14732;51.074;3.788;2024-02-15T12:11:34;6.97;;;1.42;;
27225;SDS011;14732;51.074;3.788;2024-02-15T12:14:19;4.57;;;1.63;;
27225;SDS011;14732;51.074;3.788;2024-02-15T12:17:04;5.95;;;1.67;;
27225;SDS011;14732;51.074;3.788;2024-02-15T12:19:53;3.17;;;1.40;;
27225;SDS011;14732;51.074;3.788;2024-02-15T12:22:28;3.78;;;1.50;;
27225;SDS011;14732;51.074;3.788;2024-02-15T12:25:05;3.47;;;1.30;;
27225;SDS011;14732;51.074;3.788;2024-02-15T12:27:41;4.45;;;1.55;;
27225;SDS011;14732;51.074;3.788;2024-02-15T12:30:12;4.82;;;1.35;;
27225;SDS011;14732;51.074;3.788;2024-02-15T12:32:45;4.10;;;1.48;;
27225;SDS011;14732;51.074;3.788;2024-02-15T12:35:13;2.95;;;1.48;;
27225;SDS011;14732;51.074;3.788;2024-02-15T12:37:49;4.10;;;1.50;;
27225;SDS011;14732;51.074;3.788;2024-02-15T12:40:30;5.30;;;1.23;;
27225;SDS011;14732;51.074;3.788;2024-02-15T12:42:58;5.87;;;1.40;;
27225;SDS011;14732;51.074;3.788;2024-02-15T12:45:30;5.65;;;1.73;;
27225;SDS011;14732;51.074;3.788;2024-02-15T12:47:57;5.43;;;1.55;;
27225;SDS011;14732;51.074;3.788;2024-02-15T12:50:24;2.78;;;1.48;;
27225;SDS011;14732;51.074;3.788;2024-02-15T12:52:53;4.53;;;1.98;;
27225;SDS011;14732;51.074;3.788;2024-02-15T12:55:28;2.85;;;1.67;;
27225;SDS011;14732;51.074;3.788;2024-02-15T12:58:01;4.45;;;1.60;;
27225;SDS011;14732;51.074;3.788;2024-02-15T13:00:29;6.00;;;1.83;;
27225;SDS011;14732;51.074;3.788;2024-02-15T13:02:58;3.17;;;1.70;;
27225;SDS011;14732;51.074;3.788;2024-02-15T13:05:28;6.57;;;1.90;;
27225;SDS011;14732;51.074;3.788;2024-02-15T13:07:54;3.40;;;1.70;;
27225;SDS011;14732;51.074;3.788;2024-02-15T13:10:21;4.20;;;1.80;;
27225;SDS011;14732;51.074;3.788;2024-02-15T13:12:48;6.93;;;1.90;;
27225;SDS011;14732;51.074;3.788;2024-02-15T13:15:14;3.33;;;2.05;;
27225;SDS011;14732;51.074;3.788;2024-02-15T13:17:46;6.17;;;2.90;;
27225;SDS011;14732;51.074;3.788;2024-02-15T13:20:19;5.95;;;2.80;;
27225;SDS011;14732;51.074;3.788;2024-02-15T13:22:52;8.07;;;3.22;;
27225;SDS011;14732;51.074;3.788;2024-02-15T13:25:18;10.93;;;3.25;;
27225;SDS011;14732;51.074;3.788;2024-02-15T13:27:46;5.90;;;2.92;;
27225;SDS011;14732;51.074;3.788;2024-02-15T13:30:12;5.28;;;2.50;;
27225;SDS011;14732;51.074;3.788;2024-02-15T13:32:38;10.10;;;5.05;;
27225;SDS011;14732;51.074;3.788;2024-02-15T13:35:06;10.82;;;7.60;;
27225;SDS011;14732;51.074;3.788;2024-02-15T13:37:47;9.20;;;5.60;;
27225;SDS011;14732;51.074;3.788;2024-02-15T13:40:13;12.07;;;4.40;;
27225;SDS011;14732;51.074;3.788;2024-02-15T13:42:43;7.85;;;2.67;;
27225;SDS011;14732;51.074;3.788;2024-02-15T13:45:22;7.95;;;4.57;;
27225;SDS011;14732;51.074;3.788;2024-02-15T13:47:49;8.52;;;4.15;;
27225;SDS011;14732;51.074;3.788;2024-02-15T13:50:15;5.10;;;2.47;;
27225;SDS011;14732;51.074;3.788;2024-02-15T13:52:45;3.63;;;2.03;;
27225;SDS011;14732;51.074;3.788;2024-02-15T13:55:13;17.25;;;10.18;;
27225;SDS011;14732;51.074;3.788;2024-02-15T13:57:41;8.10;;;4.30;;
27225;SDS011;14732;51.074;3.788;2024-02-15T14:00:12;7.00;;;2.20;;
27225;SDS011;14732;51.074;3.788;2024-02-15T14:02:55;9.10;;;2.58;;
27225;SDS011;14732;51.074;3.788;2024-02-15T14:05:22;5.50;;;2.28;;
27225;SDS011;14732;51.074;3.788;2024-02-15T14:07:51;9.50;;;2.90;;
27225;SDS011;14732;51.074;3.788;2024-02-15T14:10:21;8.10;;;2.63;;
27225;SDS011;14732;51.074;3.788;2024-02-15T14:12:47;10.63;;;6.00;;
27225;SDS011;14732;51.074;3.788;2024-02-15T14:15:17;14.07;;;7.13;;
27225;SDS011;14732;51.074;3.788;2024-02-15T14:17:43;8.73;;;4.93;;
27225;SDS011;14732;51.074;3.788;2024-02-15T14:20:09;14.65;;;7.43;;
27225;SDS011;14732;51.074;3.788;2024-02-15T14:22:43;11.38;;;5.90;;
27225;SDS011;14732;51.074;3.788;2024-02-15T14:25:10;13.43;;;8.88;;
27225;SDS011;14732;51.074;3.788;2024-02-15T14:27:39;10.65;;;4.28;;
27225;SDS011;14732;51.074;3.788;2024-02-15T14:30:05;10.35;;;4.53;;
27225;SDS011;14732;51.074;3.788;2024-02-15T14:32:50;8.95;;;4.43;;
27225;SDS011;14732;51.074;3.788;2024-02-15T14:35:27;12.13;;;5.28;;
27225;SDS011;14732;51.074;3.788;2024-02-15T14:37:55;12.50;;;6.28;;
27225;SDS011;14732;51.074;3.788;2024-02-15T14:40:23;8.85;;;5.30;;
27225;SDS011;14732;51.074;3.788;2024-02-15T14:42:49;15.88;;;9.13;;
27225;SDS011;14732;51.074;3.788;2024-02-15T14:45:14;11.05;;;3.13;;
27225;SDS011;14732;51.074;3.788;2024-02-15T14:47:40;8.30;;;3.97;;
27225;SDS011;14732;51.074;3.788;2024-02-15T14:50:07;6.63;;;4.25;;
27225;SDS011;14732;51.074;3.788;2024-02-15T14:52:34;5.68;;;3.22;;
27225;SDS011;14732;51.074;3.788;2024-02-15T14:55:02;4.60;;;2.80;;
27225;SDS011;14732;51.074;3.788;2024-02-15T14:57:30;5.18;;;2.70;;
27225;SDS011;14732;51.074;3.788;2024-02-15T14:59:57;5.18;;;2.53;;
27225;SDS011;14732;51.074;3.788;2024-02-15T15:02:23;4.35;;;1.75;;
27225;SDS011;14732;51.074;3.788;2024-02-15T15:04:49;6.28;;;3.65;;
27225;SDS011;14732;51.074;3.788;2024-02-15T15:07:33;9.27;;;3.50;;
27225;SDS011;14732;51.074;3.788;2024-02-15T15:10:18;3.78;;;2.60;;
27225;SDS011;14732;51.074;3.788;2024-02-15T15:13:02;7.28;;;3.20;;
27225;SDS011;14732;51.074;3.788;2024-02-15T15:15:28;4.85;;;1.70;;
27225;SDS011;14732;51.074;3.788;2024-02-15T15:17:54;4.32;;;1.23;;